Time;durP1;ratioP1;P1;durP2;ratioP2;P2;SDS_P1;SDS_P2;PMS_P1;PMS_P2;Temp;Humidity;BMP_temperature;BMP_pressure;BME280_temperature;BME280_humidity;BME280_pressure;Samples;Min_cycle;Max_cycle;Signal;HPM_P1;HPM_P2
2021/08/08 00:07:34;;;;;;;6.1;3.4;;;;;;;19.21;100;97771.66;;;;
2021/08/08 00:17:34;;;;;;;5.7;3;;;;;;;19.21;100;97776.34;;;;
2021/08/08 00:27:34;;;;;;;5.8;2.3;;;;;;;19.22;100;97773.23;;;;
2021/08/08 00:37:34;;;;;;;3.9;2.7;;;;;;;19.04;100;97784.08;;;;
2021/08/08 00:47:34;;;;;;;4.8;2.9;;;;;;;18.83;100;97783.16;;;;
2021/08/08 00:57:34;;;;;;;5.8;3.1;;;;;;;18.74;100;97774.54;;;;
2021/08/08 01:07:34;;;;;;;3.4;1.7;;;;;;;18.72;100;97758.52;;;;
2021/08/08 01:17:34;;;;;;;3.8;2.1;;;;;;;19.08;100;97746.64;;;;
2021/08/08 01:27:34;;;;;;;3.7;1.7;;;;;;;19.21;100;97738.09;;;;
2021/08/08 01:37:34;;;;;;;7.4;2.2;;;;;;;19.24;100;97743.57;;;;
2021/08/08 01:47:34;;;;;;;3.9;2;;;;;;;19.47;100;97740.57;;;;
2021/08/08 01:57:34;;;;;;;3.2;1.7;;;;;;;19.81;100;97730.09;;;;
2021/08/08 02:07:33;;;;;;;3.9;2.2;;;;;;;20.14;100;97737.92;;;;
2021/08/08 02:17:33;;;;;;;11.2;1.7;;;;;;;20.37;100;97726.63;;;;
2021/08/08 02:27:34;;;;;;;4.7;2.2;;;;;;;20.37;100;97712.94;;;;
2021/08/08 02:37:34;;;;;;;5.8;2.1;;;;;;;20.33;100;97726.63;;;;
2021/08/08 02:47:34;;;;;;;4.5;2.1;;;;;;;20.31;100;97752.8;;;;
2021/08/08 02:57:34;;;;;;;5.5;2.4;;;;;;;20.04;100;97772.31;;;;
2021/08/08 03:07:34;;;;;;;5.4;2.7;;;;;;;19.83;100;97785.16;;;;
2021/08/08 03:17:34;;;;;;;3.7;1.9;;;;;;;19.68;100;97799.98;;;;
2021/08/08 03:27:34;;;;;;;5.1;2.5;;;;;;;19.48;100;97813.17;;;;
2021/08/08 03:37:34;;;;;;;3.6;2.3;;;;;;;19.21;100;97850.1;;;;
2021/08/08 03:47:34;;;;;;;5.2;3.1;;;;;;;18.59;100;97860.98;;;;
2021/08/08 03:57:34;;;;;;;7.3;3.3;;;;;;;18.86;100;97900.59;;;;
2021/08/08 04:07:34;;;;;;;3.3;2;;;;;;;19.35;100;97929.42;;;;
2021/08/08 04:17:34;;;;;;;4.8;2.8;;;;;;;19.68;100;97955.83;;;;
2021/08/08 04:27:34;;;;;;;3;1.2;;;;;;;19.75;100;98000.38;;;;
2021/08/08 04:37:34;;;;;;;2.2;0.7;;;;;;;19.45;100;98013.46;;;;
2021/08/08 04:47:34;;;;;;;1.6;0.7;;;;;;;19.37;100;98017.27;;;;
2021/08/08 04:57:34;;;;;;;1.1;0.5;;;;;;;19.31;100;98040.64;;;;
2021/08/08 05:07:34;;;;;;;2;0.5;;;;;;;19.18;100;98067.48;;;;
2021/08/08 05:17:34;;;;;;;1.8;0.7;;;;;;;18.96;100;98110.17;;;;
2021/08/08 05:27:34;;;;;;;1.3;0.6;;;;;;;18.8;100;98126;;;;
2021/08/08 05:37:34;;;;;;;1.5;0.4;;;;;;;18.91;100;98132.38;;;;
2021/08/08 05:47:33;;;;;;;3.1;1.3;;;;;;;19.06;100;98141.48;;;;
2021/08/08 05:57:33;;;;;;;1.8;0.5;;;;;;;18.95;100;98167.91;;;;
2021/08/08 06:07:33;;;;;;;1.4;0.6;;;;;;;18.99;100;98179.64;;;;
2021/08/08 06:17:33;;;;;;;6;0.7;;;;;;;19.19;100;98186.53;;;;
2021/08/08 06:27:33;;;;;;;2.7;1.2;;;;;;;19.53;100;98211.9;;;;
2021/08/08 06:37:33;;;;;;;3.4;1.1;;;;;;;19.65;100;98229.97;;;;
2021/08/08 06:47:33;;;;;;;2.3;1;;;;;;;19.72;100;98251.91;;;;
2021/08/08 06:57:33;;;;;;;1;0.6;;;;;;;19.41;100;98264.08;;;;
2021/08/08 07:07:34;;;;;;;2.5;0.7;;;;;;;18.99;100;98277.97;;;;
2021/08/08 07:17:34;;;;;;;1.5;0.7;;;;;;;18.81;100;98280.45;;;;
2021/08/08 07:27:34;;;;;;;2.3;0.7;;;;;;;18.84;100;98290.66;;;;
2021/08/08 07:37:34;;;;;;;2;0.7;;;;;;;19.19;100;98286.83;;;;
2021/08/08 07:47:34;;;;;;;2;0.9;;;;;;;19.69;100;98290.95;;;;
2021/08/08 07:57:34;;;;;;;2.1;0.7;;;;;;;20.76;100;98298.94;;;;
2021/08/08 08:07:34;;;;;;;2.3;0.9;;;;;;;20.81;100;98306.81;;;;
2021/08/08 08:17:34;;;;;;;3.8;1.6;;;;;;;21.46;100;98271.14;;;;
2021/08/08 08:27:35;;;;;;;3.1;0.7;;;;;;;21.71;100;98282.19;;;;
2021/08/08 08:37:35;;;;;;;0.6;0.4;;;;;;;22.12;100;98272.48;;;;
2021/08/08 08:47:35;;;;;;;1.7;0.6;;;;;;;22.07;100;98286.61;;;;
2021/08/08 09:57:39;;;;;;;1.3;0.5;;;;;;;23.92;100;98318.81;;;;
2021/08/08 10:07:40;;;;;;;2.2;0.5;;;;;;;23.72;100;98306.74;;;;
2021/08/08 10:17:41;;;;;;;1.7;0.7;;;;;;;24.2;100;98331.66;;;;
2021/08/08 10:27:41;;;;;;;2.8;0.8;;;;;;;24.35;100;98343.36;;;;
2021/08/08 10:37:42;;;;;;;1.4;0.7;;;;;;;24.42;100;98340.55;;;;
2021/08/08 10:47:43;;;;;;;2.7;1.4;;;;;;;24.27;100;98352.84;;;;
2021/08/08 10:57:43;;;;;;;7.9;0.7;;;;;;;24.46;100;98355.09;;;;
2021/08/08 11:07:44;;;;;;;1.4;0.6;;;;;;;24.62;100;98349.84;;;;
2021/08/08 11:17:45;;;;;;;1.3;0.7;;;;;;;24.72;100;98351.72;;;;
2021/08/08 11:27:45;;;;;;;1.1;0.5;;;;;;;24.78;98.16211;98369.38;;;;
2021/08/08 11:37:46;;;;;;;2;0.9;;;;;;;24.97;100;98379.89;;;;
2021/08/08 11:47:47;;;;;;;2.4;1.1;;;;;;;24.92;100;98377.56;;;;
2021/08/08 11:57:48;;;;;;;1.5;0.7;;;;;;;25.14;100;98385.64;;;;
2021/08/08 12:07:48;;;;;;;2;0.8;;;;;;;24.84;100;98392.62;;;;
2021/08/08 12:18:01;;;;;;;1.5;0.4;;;;;;;24.69;100;98385.61;;;;
2021/08/08 12:27:52;;;;;;;1;0.4;;;;;;;24.85;100;98401.67;;;;
2021/08/08 12:37:51;;;;;;;1.6;0.6;;;;;;;24.97;100;98412.2;;;;
2021/08/08 12:48:03;;;;;;;2;0.7;;;;;;;25.03;100;98405.83;;;;
2021/08/08 12:57:52;;;;;;;2.1;0.8;;;;;;;25.41;99.39941;98414.91;;;;
2021/08/08 13:07:53;;;;;;;1;0.4;;;;;;;25.37;94.88965;98425.2;;;;
2021/08/08 13:17:54;;;;;;;2.8;1.1;;;;;;;26.11;92.97266;98428.34;;;;
2021/08/08 13:27:55;;;;;;;1.4;0.6;;;;;;;26.08;91.80566;98427.19;;;;
2021/08/08 13:37:55;;;;;;;1.5;0.5;;;;;;;25.76;92.00879;98433.09;;;;
2021/08/08 13:47:56;;;;;;;2.3;0.5;;;;;;;26.35;88.31934;98441.06;;;;
2021/08/08 13:57:57;;;;;;;1.4;0.7;;;;;;;25.75;90.91406;98428.8;;;;
2021/08/08 14:07:58;;;;;;;0.8;0.6;;;;;;;25.49;93.84766;98413.66;;;;
2021/08/08 14:17:59;;;;;;;0.9;0.5;;;;;;;25.25;91.38281;98409.18;;;;
2021/08/08 14:27:59;;;;;;;1.7;0.8;;;;;;;25.11;93.28027;98420.34;;;;
2021/08/08 14:38:00;;;;;;;1.2;0.4;;;;;;;24.85;96.42676;98416.22;;;;
2021/08/08 14:48:01;;;;;;;4.1;0.8;;;;;;;25.01;97.8418;98416.5;;;;
2021/08/08 14:58:02;;;;;;;1.5;0.8;;;;;;;24.73;99.2041;98408.42;;;;
2021/08/08 15:08:02;;;;;;;4.5;2.1;;;;;;;24.57;99.375;98421.15;;;;
2021/08/08 15:18:03;;;;;;;3.4;1.4;;;;;;;25.24;95.79102;98432.44;;;;
2021/08/08 15:28:04;;;;;;;5.7;2.9;;;;;;;27.21;87.86719;98444.13;;;;
2021/08/08 15:38:05;;;;;;;3.6;1.2;;;;;;;26.64;88.77148;98438.69;;;;
2021/08/08 15:48:06;;;;;;;2.5;0.7;;;;;;;27.81;76.77344;98460.44;;;;
2021/08/08 15:58:07;;;;;;;2.8;1;;;;;;;26.63;83.8916;98465.55;;;;
2021/08/08 16:08:08;;;;;;;3.3;1.3;;;;;;;26.37;84.00781;98458.03;;;;
2021/08/08 16:18:09;;;;;;;15.5;13;;;;;;;25.46;85.86523;98460.61;;;;
2021/08/08 16:28:10;;;;;;;7.8;4.5;;;;;;;24.97;96.67383;98479.16;;;;
2021/08/08 16:38:11;;;;;;;3.7;1.9;;;;;;;24.91;100;98480;;;;
2021/08/08 16:48:11;;;;;;;2.1;1;;;;;;;24.92;100;98470.55;;;;
2021/08/08 16:58:12;;;;;;;2.1;1.1;;;;;;;24.19;100;98473.31;;;;
2021/08/08 17:08:13;;;;;;;2.1;0.7;;;;;;;24.21;100;98478.41;;;;
2021/08/08 17:18:14;;;;;;;4;1.9;;;;;;;23.87;100;98478.12;;;;
2021/08/08 17:28:14;;;;;;;4.1;2.5;;;;;;;24.31;100;98463.8;;;;
2021/08/08 17:38:15;;;;;;;4.7;2;;;;;;;23.79;100;98480.1;;;;
2021/08/08 17:48:16;;;;;;;3.6;1.3;;;;;;;23.32;100;98473.09;;;;
2021/08/08 17:58:16;;;;;;;3.5;1.5;;;;;;;23.18;100;98475.85;;;;
2021/08/08 18:08:19;;;;;;;2.9;1.5;;;;;;;22.71;100;98460.5;;;;
2021/08/08 18:18:17;;;;;;;3.5;1.7;;;;;;;21.84;100;98480.94;;;;
2021/08/08 18:28:17;;;;;;;4;1.9;;;;;;;21.8;100;98493.84;;;;
2021/08/08 18:38:18;;;;;;;5.6;2.2;;;;;;;21.69;100;98493.81;;;;
2021/08/08 18:48:18;;;;;;;7.2;3.3;;;;;;;21.29;100;98489.22;;;;
2021/08/08 18:58:18;;;;;;;14.1;3.4;;;;;;;21.07;100;98501.14;;;;
2021/08/08 19:08:21;;;;;;;5.2;3.1;;;;;;;21.03;100;98520.29;;;;
2021/08/08 19:18:19;;;;;;;6.1;2.9;;;;;;;21.03;100;98527.75;;;;
2021/08/08 19:28:21;;;;;;;7.7;2.3;;;;;;;20.97;100;98529.23;;;;
2021/08/08 19:38:21;;;;;;;4.7;2.2;;;;;;;20.88;100;98526.03;;;;
2021/08/08 19:48:19;;;;;;;26.8;18.6;;;;;;;20.78;100;98532.19;;;;
2021/08/08 19:58:20;;;;;;;16.3;10.1;;;;;;;20.87;100;98522.5;;;;
2021/08/08 20:08:20;;;;;;;12;8.8;;;;;;;20.77;100;98533.34;;;;
2021/08/08 20:18:20;;;;;;;6.5;3.9;;;;;;;20.6;100;98551.17;;;;
2021/08/08 20:28:20;;;;;;;3.6;2.1;;;;;;;20.25;100;98539.77;;;;
2021/08/08 20:38:20;;;;;;;5.7;3;;;;;;;20.07;100;98515.7;;;;
2021/08/08 20:48:21;;;;;;;6.2;2.9;;;;;;;19.94;100;98492.48;;;;
2021/08/08 20:58:21;;;;;;;7.6;4;;;;;;;19.81;100;98504.81;;;;
2021/08/08 21:08:21;;;;;;;7.7;3.7;;;;;;;19.73;100;98519.53;;;;
2021/08/08 21:18:21;;;;;;;5.5;3.6;;;;;;;19.72;100;98536.3;;;;
2021/08/08 21:28:21;;;;;;;6.3;3.1;;;;;;;19.46;100;98561.7;;;;
2021/08/08 21:38:21;;;;;;;8.9;3.4;;;;;;;19.41;100;98529.2;;;;
2021/08/08 21:48:21;;;;;;;13.7;2.1;;;;;;;19.1;100;98648.5;;;;
2021/08/08 21:58:21;;;;;;;5.7;2.4;;;;;;;18.5;100;98684.7;;;;
2021/08/08 22:08:21;;;;;;;7.8;3.3;;;;;;;17.39;100;98683.16;;;;
2021/08/08 22:18:21;;;;;;;6;3;;;;;;;17.07;100;98704.11;;;;
2021/08/08 22:28:21;;;;;;;4.8;2.1;;;;;;;17.11;100;98688.64;;;;
2021/08/08 22:38:20;;;;;;;7.9;2.9;;;;;;;17.01;100;98743.59;;;;
2021/08/08 22:48:24;;;;;;;5.7;2.1;;;;;;;16.97;100;98793.66;;;;
2021/08/08 22:58:19;;;;;;;6.3;3.2;;;;;;;16.84;100;98860.94;;;;
2021/08/08 23:08:19;;;;;;;4.7;2.4;;;;;;;16.77;100;98819.08;;;;
2021/08/08 23:18:19;;;;;;;3.5;2.2;;;;;;;16.72;100;98795.64;;;;
2021/08/08 23:28:20;;;;;;;4.5;2.2;;;;;;;16.81;100;98739.13;;;;
2021/08/08 23:38:18;;;;;;;5.5;1.9;;;;;;;16.88;100;98733.89;;;;
2021/08/08 23:48:18;;;;;;;6.1;2.9;;;;;;;16.66;100;98726.22;;;;
2021/08/08 23:58:18;;;;;;;3.8;1.7;;;;;;;16.38;100;98744.41;;;;
